Time;durP1;ratioP1;P1;durP2;ratioP2;P2;SDS_P1;SDS_P2;PMS_P1;PMS_P2;Temp;Humidity;BMP_temperature;BMP_pressure;BME280_temperature;BME280_humidity;BME280_pressure;Samples;Min_cycle;Max_cycle;Signal;HPM_P1;HPM_P2
2021/09/06 00:01:46;;;;;;;0.30;0.20;;;14.30;99.90;;;;;;5054057;28;20200;-64
2021/09/06 00:04:12;;;;;;;0.30;0.20;;;14.20;99.90;;;;;;5054246;28;20614;-64
2021/09/06 00:06:40;;;;;;;0.30;0.20;;;14.20;99.90;;;;;;5054703;28;20177;-64
2021/09/06 00:09:06;;;;;;;0.30;0.10;;;14.30;99.90;;;;;;5054349;28;20216;-64
2021/09/06 00:11:31;;;;;;;0.30;0.20;;;14.30;99.90;;;;;;5054270;28;20687;-65
2021/09/06 00:13:57;;;;;;;0.30;0.20;;;14.20;99.90;;;;;;5053357;28;20200;-65
2021/09/06 00:16:23;;;;;;;0.40;0.20;;;14.20;99.90;;;;;;5053191;28;20195;-65
2021/09/06 00:18:49;;;;;;;0.40;0.20;;;14.30;99.90;;;;;;5053973;28;20499;-64
2021/09/06 00:21:15;;;;;;;0.30;0.20;;;14.20;99.90;;;;;;5053961;28;20751;-64
2021/09/06 00:23:41;;;;;;;0.30;0.20;;;14.10;99.90;;;;;;5054381;28;20256;-64
2021/09/06 00:26:06;;;;;;;0.30;0.20;;;14.10;99.90;;;;;;5054195;28;20481;-65
2021/09/06 00:28:32;;;;;;;0.30;0.20;;;14.00;99.90;;;;;;5053735;28;20538;-64
2021/09/06 00:30:58;;;;;;;0.30;0.20;;;14.00;99.90;;;;;;5052770;28;20457;-64
2021/09/06 00:33:24;;;;;;;0.30;0.20;;;14.00;99.90;;;;;;5054175;28;20796;-64
2021/09/06 00:35:50;;;;;;;0.70;0.70;;;14.00;99.90;;;;;;5053975;28;20263;-65
2021/09/06 00:38:20;;;;;;;0.30;0.20;;;14.00;99.90;;;;;;5053358;28;20490;-64
2021/09/06 00:40:49;;;;;;;0.30;0.20;;;14.00;99.90;;;;;;5053804;28;20783;-64
2021/09/06 00:43:15;;;;;;;0.30;0.20;;;14.00;99.90;;;;;;5054185;28;20176;-63
2021/09/06 00:45:41;;;;;;;0.30;0.20;;;14.10;99.90;;;;;;5054103;28;20173;-64
2021/09/06 00:48:08;;;;;;;0.30;0.20;;;14.00;99.90;;;;;;5052860;28;20523;-64
2021/09/06 00:50:34;;;;;;;0.30;0.20;;;14.00;99.90;;;;;;5053781;28;20296;-64
2021/09/06 00:53:01;;;;;;;1.05;1.05;;;14.00;99.90;;;;;;5053589;28;20226;-64
2021/09/06 00:55:27;;;;;;;0.90;0.90;;;14.10;99.90;;;;;;5053414;28;20210;-64
2021/09/06 00:57:56;;;;;;;0.30;0.20;;;14.10;99.90;;;;;;5052555;28;20295;-64
2021/09/06 01:00:22;;;;;;;0.30;0.20;;;14.10;99.90;;;;;;5054067;28;20539;-64
2021/09/06 01:02:48;;;;;;;0.30;0.20;;;14.00;99.90;;;;;;5054193;28;20259;-64
2021/09/06 01:05:14;;;;;;;0.30;0.17;;;14.00;99.90;;;;;;5052752;28;20268;-64
2021/09/06 01:07:40;;;;;;;0.30;0.10;;;13.90;99.90;;;;;;5057853;28;20213;-64
2021/09/06 01:10:09;;;;;;;0.30;0.20;;;13.90;99.90;;;;;;5057608;28;20602;-65
2021/09/06 01:12:36;;;;;;;0.30;0.20;;;13.80;99.90;;;;;;5056444;28;20740;-65
2021/09/06 01:15:04;;;;;;;0.60;0.60;;;13.80;99.90;;;;;;5057438;28;20234;-64
2021/09/06 01:17:32;;;;;;;0.30;0.20;;;13.70;99.90;;;;;;5057252;28;20208;-65
2021/09/06 01:19:57;;;;;;;0.30;0.20;;;13.70;99.90;;;;;;5057132;28;20560;-65
2021/09/06 01:22:23;;;;;;;0.30;0.20;;;13.70;99.90;;;;;;5057575;28;20221;-64
2021/09/06 01:24:49;;;;;;;0.30;0.20;;;13.70;99.90;;;;;;5056827;28;20184;-64
2021/09/06 01:27:15;;;;;;;0.30;0.10;;;13.60;99.90;;;;;;5056343;28;20231;-64
2021/09/06 01:29:41;;;;;;;0.30;0.20;;;13.60;99.90;;;;;;5057183;28;20200;-64
2021/09/06 01:32:08;;;;;;;0.30;0.20;;;13.60;99.90;;;;;;5057163;28;20173;-65
2021/09/06 01:34:33;;;;;;;0.35;0.20;;;13.50;99.90;;;;;;5057209;28;20200;-64
2021/09/06 01:37:00;;;;;;;0.30;0.20;;;13.60;99.90;;;;;;5057075;28;20177;-64
2021/09/06 01:39:26;;;;;;;0.30;0.20;;;13.70;99.90;;;;;;5056756;28;20232;-65
2021/09/06 01:41:51;;;;;;;0.30;0.20;;;13.80;99.90;;;;;;5057022;28;20181;-65
2021/09/06 01:44:17;;;;;;;0.30;0.20;;;13.80;99.90;;;;;;5057048;28;20221;-64
2021/09/06 01:46:43;;;;;;;0.30;0.20;;;13.70;99.90;;;;;;5056835;28;20506;-64
2021/09/06 01:49:08;;;;;;;0.30;0.20;;;13.40;99.90;;;;;;5057311;28;20177;-64
2021/09/06 01:51:34;;;;;;;0.30;0.20;;;13.50;99.90;;;;;;5056657;28;20181;-64
2021/09/06 01:54:00;;;;;;;0.30;0.20;;;13.50;99.90;;;;;;5057326;28;20177;-64
2021/09/06 01:56:25;;;;;;;0.30;0.17;;;13.50;99.90;;;;;;5056955;28;20522;-64
2021/09/06 01:58:51;;;;;;;0.30;0.20;;;13.50;99.90;;;;;;5054974;28;20220;-64
2021/09/06 02:01:17;;;;;;;0.30;0.20;;;13.50;99.90;;;;;;5054745;28;20173;-64
2021/09/06 02:03:43;;;;;;;0.30;0.20;;;13.60;99.90;;;;;;5055713;28;20187;-64
2021/09/06 02:06:09;;;;;;;0.30;0.20;;;13.70;99.90;;;;;;5055247;28;20177;-63
2021/09/06 02:08:35;;;;;;;0.30;0.20;;;13.60;99.90;;;;;;5055045;28;20208;-64
2021/09/06 02:11:01;;;;;;;0.30;0.20;;;13.50;99.90;;;;;;5055241;28;20491;-64
2021/09/06 02:13:27;;;;;;;0.30;0.20;;;13.50;99.90;;;;;;5055371;28;20187;-63
2021/09/06 02:15:53;;;;;;;0.30;0.10;;;13.60;99.90;;;;;;5055182;28;20761;-63
2021/09/06 02:18:19;;;;;;;0.30;0.20;;;13.60;99.90;;;;;;5054432;28;20197;-64
2021/09/06 02:20:44;;;;;;;0.40;0.40;;;13.50;99.90;;;;;;5054959;28;20451;-64
2021/09/06 02:23:10;;;;;;;0.30;0.20;;;13.50;99.90;;;;;;5054171;28;20427;-64
2021/09/06 02:25:36;;;;;;;0.30;0.20;;;13.40;99.90;;;;;;5055321;28;20235;-64
2021/09/06 02:28:02;;;;;;;0.30;0.20;;;13.40;99.90;;;;;;5055537;28;20912;-64
2021/09/06 02:30:27;;;;;;;0.30;0.20;;;13.50;99.90;;;;;;5054990;28;20185;-64
2021/09/06 02:32:53;;;;;;;0.30;0.20;;;13.40;99.90;;;;;;5055080;28;20588;-64
2021/09/06 02:35:19;;;;;;;0.30;0.20;;;13.30;99.90;;;;;;5054948;28;20556;-64
2021/09/06 02:37:44;;;;;;;0.50;0.50;;;13.30;99.90;;;;;;5053685;28;20235;-65
2021/09/06 02:40:11;;;;;;;0.30;0.20;;;13.30;99.90;;;;;;5054637;28;20516;-65
2021/09/06 02:42:37;;;;;;;0.30;0.20;;;13.30;99.90;;;;;;5054687;28;20184;-65
2021/09/06 02:45:03;;;;;;;0.30;0.20;;;13.30;99.90;;;;;;5054726;28;20200;-64
2021/09/06 02:47:30;;;;;;;1.65;1.65;;;13.30;99.90;;;;;;5054481;28;20172;-64
2021/09/06 02:49:57;;;;;;;0.30;0.20;;;13.40;99.90;;;;;;5053654;28;20599;-64
2021/09/06 02:52:23;;;;;;;0.30;0.20;;;13.30;99.90;;;;;;5054607;28;20188;-64
2021/09/06 02:54:49;;;;;;;0.30;0.20;;;13.30;99.90;;;;;;5054552;28;20177;-64
2021/09/06 02:57:15;;;;;;;0.30;0.20;;;13.20;99.90;;;;;;5054540;28;20230;-64
2021/09/06 02:59:41;;;;;;;0.30;0.20;;;13.20;99.90;;;;;;5011702;28;1254748;-64
2021/09/06 03:02:06;;;;;;;0.30;0.20;;;13.30;99.90;;;;;;5055491;28;20524;-64
2021/09/06 03:04:32;;;;;;;0.30;0.20;;;13.40;99.90;;;;;;5055543;28;20263;-65
2021/09/06 03:06:57;;;;;;;0.30;0.20;;;13.50;99.90;;;;;;5055141;28;20594;-65
2021/09/06 03:09:26;;;;;;;0.30;0.20;;;13.40;99.90;;;;;;5055279;28;20250;-65
2021/09/06 03:11:51;;;;;;;0.30;0.17;;;13.30;99.90;;;;;;5055274;28;20184;-64
2021/09/06 03:14:17;;;;;;;0.30;0.20;;;13.40;99.90;;;;;;5055214;28;20271;-64
2021/09/06 03:16:43;;;;;;;0.30;0.10;;;13.50;99.90;;;;;;5055526;28;20438;-65
2021/09/06 03:19:09;;;;;;;0.30;0.17;;;13.30;99.90;;;;;;5055524;28;20200;-64
2021/09/06 03:21:35;;;;;;;0.30;0.20;;;13.30;99.90;;;;;;5055413;28;20420;-64
2021/09/06 03:24:00;;;;;;;0.30;0.20;;;13.40;99.90;;;;;;5055238;28;20263;-65
2021/09/06 03:26:26;;;;;;;0.30;0.20;;;13.60;99.90;;;;;;5054899;28;20204;-65
2021/09/06 03:28:52;;;;;;;0.30;0.20;;;13.60;99.90;;;;;;5053999;28;20225;-65
2021/09/06 03:31:17;;;;;;;0.30;0.20;;;13.50;99.90;;;;;;5055083;28;20176;-65
2021/09/06 03:33:43;;;;;;;0.30;0.20;;;13.40;99.90;;;;;;5053812;28;20181;-65
2021/09/06 03:36:09;;;;;;;0.30;0.20;;;13.40;99.90;;;;;;5054962;28;20491;-65
2021/09/06 03:38:34;;;;;;;0.30;0.20;;;13.30;99.90;;;;;;5054577;28;20201;-65
2021/09/06 03:41:00;;;;;;;0.30;0.20;;;13.30;99.90;;;;;;5054758;28;20236;-65
2021/09/06 03:43:26;;;;;;;0.30;0.10;;;13.30;99.90;;;;;;5054702;28;20177;-65
2021/09/06 03:45:51;;;;;;;0.30;0.20;;;13.20;99.90;;;;;;5054845;28;20444;-66
2021/09/06 03:48:17;;;;;;;0.30;0.20;;;13.10;99.90;;;;;;5054316;28;20505;-65
2021/09/06 03:50:43;;;;;;;0.30;0.20;;;13.10;99.90;;;;;;5054538;28;20222;-65
2021/09/06 03:53:09;;;;;;;0.30;0.20;;;13.10;99.90;;;;;;5054428;28;20192;-65
2021/09/06 03:55:35;;;;;;;0.30;0.20;;;13.10;99.90;;;;;;5054514;28;20184;-65
2021/09/06 03:58:00;;;;;;;0.30;0.13;;;13.10;99.90;;;;;;5054227;28;20556;-64
2021/09/06 04:00:26;;;;;;;0.30;0.20;;;13.10;99.90;;;;;;5054266;28;20177;-64
2021/09/06 04:02:51;;;;;;;0.30;0.20;;;13.10;99.90;;;;;;5054260;28;20177;-64
2021/09/06 04:05:17;;;;;;;0.30;0.30;;;13.00;99.90;;;;;;5054323;28;20642;-64
2021/09/06 04:07:43;;;;;;;0.30;0.20;;;13.00;99.90;;;;;;5054078;28;20177;-64
2021/09/06 04:10:09;;;;;;;0.30;0.20;;;13.10;99.90;;;;;;5054483;28;20651;-64
2021/09/06 04:12:35;;;;;;;0.30;0.20;;;13.10;99.90;;;;;;5054148;28;20207;-64
2021/09/06 04:15:03;;;;;;;0.30;0.20;;;13.10;99.90;;;;;;5053947;28;20177;-64
2021/09/06 04:17:30;;;;;;;0.30;0.20;;;12.90;99.90;;;;;;5054015;28;20180;-65
2021/09/06 04:19:55;;;;;;;0.30;0.20;;;12.90;99.90;;;;;;5053643;28;20275;-64
2021/09/06 04:22:21;;;;;;;0.40;0.20;;;13.00;99.90;;;;;;5053850;28;20621;-64
2021/09/06 04:24:47;;;;;;;0.30;0.20;;;13.00;99.90;;;;;;5053892;28;20199;-64
2021/09/06 04:27:12;;;;;;;0.30;0.20;;;13.00;99.90;;;;;;5053698;28;20205;-64
2021/09/06 04:29:38;;;;;;;0.30;0.20;;;13.00;99.90;;;;;;5053748;28;20176;-64
2021/09/06 04:32:03;;;;;;;0.30;0.20;;;13.10;99.90;;;;;;5053747;28;20176;-64
2021/09/06 04:34:29;;;;;;;0.30;0.20;;;13.00;99.90;;;;;;5047110;28;20196;-64
2021/09/06 04:36:55;;;;;;;0.30;0.20;;;13.00;99.90;;;;;;5040937;28;20185;-64
2021/09/06 04:39:20;;;;;;;0.30;0.20;;;13.00;99.90;;;;;;5033258;28;20263;-64
2021/09/06 04:41:46;;;;;;;0.30;0.20;;;13.00;99.90;;;;;;5033605;28;20185;-65
2021/09/06 04:44:11;;;;;;;0.30;0.20;;;12.90;99.90;;;;;;5033791;28;20522;-64
2021/09/06 04:46:37;;;;;;;0.30;0.20;;;12.90;99.90;;;;;;5033519;28;20583;-64
2021/09/06 04:49:04;;;;;;;0.30;0.20;;;12.90;99.90;;;;;;5033268;28;20240;-65
2021/09/06 04:51:29;;;;;;;0.30;0.20;;;13.00;99.90;;;;;;5033887;28;20177;-64
2021/09/06 04:53:55;;;;;;;0.30;0.20;;;12.90;99.90;;;;;;5033504;28;20480;-65
2021/09/06 04:56:23;;;;;;;0.30;0.10;;;13.00;99.90;;;;;;5033368;28;20181;-64
2021/09/06 04:58:50;;;;;;;0.30;0.20;;;13.10;99.90;;;;;;5033089;28;20251;-64
2021/09/06 05:01:16;;;;;;;0.30;0.20;;;13.00;99.90;;;;;;5033136;28;20599;-64
2021/09/06 05:03:41;;;;;;;0.30;0.20;;;13.00;99.90;;;;;;5051982;28;20177;-64
2021/09/06 05:06:07;;;;;;;0.30;0.20;;;13.20;99.90;;;;;;5051058;28;20185;-66
2021/09/06 05:08:33;;;;;;;0.30;0.20;;;13.30;99.90;;;;;;5052458;28;20260;-65
2021/09/06 05:10:58;;;;;;;0.30;0.20;;;13.40;99.90;;;;;;5053113;28;20423;-65
2021/09/06 05:13:24;;;;;;;0.30;0.20;;;13.40;99.90;;;;;;5053159;28;20528;-64
2021/09/06 05:15:50;;;;;;;0.57;0.57;;;13.50;99.90;;;;;;5050801;28;20372;-64
2021/09/06 05:18:16;;;;;;;0.40;0.20;;;13.50;99.90;;;;;;5051593;28;20292;-64
2021/09/06 05:20:42;;;;;;;0.30;0.20;;;13.70;99.90;;;;;;5052989;28;20180;-65
2021/09/06 05:23:08;;;;;;;0.30;0.10;;;13.70;99.90;;;;;;5052387;28;20181;-65
2021/09/06 05:25:34;;;;;;;0.30;0.20;;;13.80;99.90;;;;;;5052305;28;20435;-65
2021/09/06 05:28:00;;;;;;;0.30;0.20;;;14.10;99.90;;;;;;5051405;28;20439;-63
2021/09/06 05:30:25;;;;;;;0.30;0.20;;;14.90;99.90;;;;;;5048283;28;20633;-64
2021/09/06 05:32:51;;;;;;;0.30;0.20;;;15.40;99.90;;;;;;5038223;28;20203;-66
2021/09/06 05:35:17;;;;;;;0.30;0.20;;;16.70;99.90;;;;;;5053302;28;20260;-66
2021/09/06 05:37:42;;;;;;;0.40;0.20;;;17.70;99.90;;;;;;5053340;28;20243;-66
2021/09/06 05:40:09;;;;;;;1.03;0.93;;;18.50;99.90;;;;;;5053548;28;20177;-68
2021/09/06 05:42:34;;;;;;;0.33;0.17;;;19.20;1.00;;;;;;5053616;28;20675;-66
2021/09/06 05:45:00;;;;;;;0.50;0.43;;;20.20;75.80;;;;;;5053538;28;20510;-66
2021/09/06 05:47:26;;;;;;;0.40;0.30;;;20.80;1.00;;;;;;5053539;28;20256;-66
2021/09/06 05:49:51;;;;;;;0.40;0.30;;;21.40;1.00;;;;;;5053439;28;20173;-67
2021/09/06 05:52:17;;;;;;;0.40;0.20;;;21.80;83.00;;;;;;5055479;28;20184;-71
2021/09/06 05:54:42;;;;;;;0.87;0.87;;;21.90;99.90;;;;;;5056144;28;20192;-69
2021/09/06 05:57:08;;;;;;;0.40;0.40;;;22.30;1.00;;;;;;5057449;28;20590;-68
2021/09/06 05:59:34;;;;;;;0.40;0.17;;;23.00;1.00;;;;;;5056582;28;20225;-69
2021/09/06 06:02:00;;;;;;;0.40;0.20;;;23.60;99.90;;;;;;5056607;28;20183;-68
2021/09/06 06:04:26;;;;;;;0.40;0.20;;;24.20;99.90;;;;;;5057198;28;20189;-67
2021/09/06 06:06:51;;;;;;;0.40;0.10;;;24.30;99.90;;;;;;5055767;28;20438;-67
2021/09/06 06:09:17;;;;;;;0.40;0.20;;;24.90;67.90;;;;;;5056792;28;20903;-67
2021/09/06 06:11:43;;;;;;;1.27;1.13;;;24.80;90.90;;;;;;5055790;28;20212;-67
2021/09/06 06:14:09;;;;;;;0.40;0.20;;;25.00;25.60;;;;;;5056775;28;20271;-68
2021/09/06 06:16:35;;;;;;;0.40;0.20;;;25.20;20.70;;;;;;5056785;28;20596;-67
2021/09/06 06:19:01;;;;;;;0.40;0.20;;;25.80;1.00;;;;;;5055652;28;20546;-66
2021/09/06 06:21:28;;;;;;;0.40;0.20;;;26.20;1.00;;;;;;5055632;28;20908;-67
2021/09/06 06:23:54;;;;;;;0.40;0.20;;;26.60;1.00;;;;;;5056881;28;20442;-66
2021/09/06 06:26:19;;;;;;;0.40;0.10;;;27.20;1.00;;;;;;5056706;28;20432;-68
2021/09/06 06:28:45;;;;;;;0.50;0.20;;;27.60;1.00;;;;;;5055312;28;20916;-68
2021/09/06 06:31:10;;;;;;;0.40;0.20;;;27.90;1.00;;;;;;5056593;28;20173;-67
2021/09/06 06:33:36;;;;;;;0.70;0.70;;;28.20;1.00;;;;;;5056503;28;20626;-65
2021/09/06 06:36:03;;;;;;;0.40;0.20;;;28.30;1.00;;;;;;5056546;28;20630;-68
2021/09/06 06:38:30;;;;;;;0.43;0.27;;;28.60;1.00;;;;;;5056084;28;20204;-68
2021/09/06 06:40:55;;;;;;;0.90;0.90;;;28.50;1.00;;;;;;5055191;28;20869;-68
2021/09/06 06:43:21;;;;;;;0.40;0.20;;;27.30;1.00;;;;;;5049925;28;20427;-68
2021/09/06 06:45:46;;;;;;;0.70;0.67;;;26.50;1.00;;;;;;5052109;28;20208;-66
2021/09/06 06:48:12;;;;;;;0.50;0.50;;;26.70;1.00;;;;;;5048101;28;20216;-67
2021/09/06 06:50:38;;;;;;;0.40;0.10;;;26.20;1.00;;;;;;5051905;28;20184;-66
2021/09/06 06:53:03;;;;;;;0.50;0.30;;;26.00;1.00;;;;;;5056202;28;20269;-67
2021/09/06 06:55:30;;;;;;;0.40;0.10;;;25.70;1.00;;;;;;5055877;28;20271;-67
2021/09/06 06:57:55;;;;;;;0.40;0.20;;;24.60;33.40;;;;;;5055864;28;20223;-66
2021/09/06 07:00:21;;;;;;;0.50;0.20;;;23.20;99.90;;;;;;5055829;28;20423;-66
2021/09/06 07:02:47;;;;;;;0.40;0.20;;;21.50;99.90;;;;;;5055290;28;20621;-66
2021/09/06 07:05:12;;;;;;;0.50;0.20;;;20.70;1.00;;;;;;5055334;28;20181;-65
2021/09/06 07:07:39;;;;;;;1.27;1.13;;;20.60;1.00;;;;;;5055681;28;20180;-65
2021/09/06 07:10:09;;;;;;;2.40;2.20;;;20.10;1.00;;;;;;5055658;28;20426;-65
2021/09/06 07:12:35;;;;;;;0.50;0.40;;;20.10;34.20;;;;;;5055874;28;20420;-68
2021/09/06 07:15:01;;;;;;;0.50;0.30;;;19.60;99.90;;;;;;5055689;28;20434;-68
2021/09/06 07:17:27;;;;;;;1.90;1.33;;;19.10;99.90;;;;;;5055081;28;20196;-68
2021/09/06 07:19:53;;;;;;;0.87;0.50;;;18.70;99.90;;;;;;5053526;28;20750;-69
2021/09/06 07:22:18;;;;;;;1.27;0.87;;;18.40;1.00;;;;;;5053661;28;20216;-70
2021/09/06 07:24:44;;;;;;;0.40;0.20;;;18.40;99.90;;;;;;5055668;28;20252;-68
2021/09/06 07:27:09;;;;;;;0.40;0.20;;;18.50;99.90;;;;;;5054313;28;20192;-67
2021/09/06 07:29:35;;;;;;;2.83;1.60;;;18.30;1.00;;;;;;5053861;28;20177;-68
2021/09/06 07:32:01;;;;;;;1.30;1.20;;;18.60;1.00;;;;;;5054479;28;20177;-67
2021/09/06 07:34:26;;;;;;;0.40;0.30;;;18.70;1.00;;;;;;5055715;28;20268;-67
2021/09/06 07:36:55;;;;;;;0.40;0.20;;;18.80;99.90;;;;;;5053995;28;20431;-67
2021/09/06 07:39:20;;;;;;;0.40;0.20;;;18.40;1.00;;;;;;5055355;28;20633;-68
2021/09/06 07:41:46;;;;;;;1.83;1.50;;;18.40;1.00;;;;;;5055296;28;20419;-68
2021/09/06 07:44:11;;;;;;;1.03;0.93;;;18.30;99.90;;;;;;5054111;28;20186;-70
2021/09/06 07:46:37;;;;;;;1.23;1.03;;;18.20;99.90;;;;;;5059511;28;20181;-67
2021/09/06 07:49:03;;;;;;;0.50;0.20;;;18.30;99.90;;;;;;5068782;28;20606;-67
2021/09/06 07:51:29;;;;;;;2.13;1.47;;;18.30;48.50;;;;;;5062830;28;20195;-66
2021/09/06 07:53:54;;;;;;;4.70;1.80;;;18.30;1.00;;;;;;5075660;28;20297;-66
2021/09/06 07:56:20;;;;;;;0.40;0.30;;;18.60;1.00;;;;;;5076787;28;20452;-65
2021/09/06 07:58:45;;;;;;;0.47;0.20;;;18.90;99.90;;;;;;5073339;28;20547;-65
2021/09/06 08:01:11;;;;;;;0.40;0.20;;;19.00;99.90;;;;;;5066261;28;20192;-65
2021/09/06 08:03:37;;;;;;;0.50;0.40;;;19.10;29.90;;;;;;5055905;28;20192;-66
2021/09/06 08:06:03;;;;;;;0.40;0.20;;;19.40;99.90;;;;;;5056591;28;20435;-66
2021/09/06 08:08:28;;;;;;;1.00;0.83;;;19.40;99.90;;;;;;5054521;28;20632;-65
2021/09/06 08:10:54;;;;;;;0.40;0.20;;;19.00;1.00;;;;;;5054949;28;20196;-67
2021/09/06 08:13:19;;;;;;;0.40;0.20;;;19.00;1.00;;;;;;5054781;28;20237;-67
2021/09/06 08:15:45;;;;;;;0.40;0.20;;;19.10;1.00;;;;;;5054395;28;20185;-67
2021/09/06 08:18:11;;;;;;;0.40;0.10;;;19.10;99.90;;;;;;5054781;28;20208;-67
2021/09/06 08:20:37;;;;;;;4.10;3.70;;;19.10;99.90;;;;;;5056687;28;20613;-66
2021/09/06 08:23:03;;;;;;;0.40;0.30;;;19.00;99.90;;;;;;5056377;28;20184;-66
2021/09/06 08:25:29;;;;;;;1.63;1.53;;;19.00;99.90;;;;;;5054297;28;20812;-65
2021/09/06 08:27:55;;;;;;;2.20;1.57;;;18.90;99.90;;;;;;5053010;28;20493;-66
2021/09/06 08:30:21;;;;;;;0.40;0.20;;;18.90;99.90;;;;;;5054051;28;20423;-66
2021/09/06 08:32:47;;;;;;;0.43;0.23;;;19.10;99.90;;;;;;5053993;28;20495;-66
2021/09/06 08:35:14;;;;;;;0.83;0.83;;;19.00;99.90;;;;;;5054049;28;20615;-66
2021/09/06 08:37:40;;;;;;;0.40;0.20;;;18.90;1.00;;;;;;5052903;28;20439;-66
2021/09/06 08:40:09;;;;;;;0.60;0.50;;;18.50;98.80;;;;;;5054026;28;20419;-66
2021/09/06 08:42:36;;;;;;;1.93;0.87;;;18.60;42.60;;;;;;5050833;28;20441;-68
2021/09/06 08:45:01;;;;;;;2.10;2.00;;;18.80;1.00;;;;;;5044639;28;20884;-64
2021/09/06 08:47:27;;;;;;;3.40;1.00;;;18.80;1.00;;;;;;5041748;28;20462;-64
2021/09/06 08:49:53;;;;;;;1.07;0.93;;;18.80;1.00;;;;;;5043936;28;20768;-64
2021/09/06 08:52:18;;;;;;;0.87;0.87;;;19.00;1.00;;;;;;5050255;28;20185;-64
2021/09/06 08:54:44;;;;;;;0.70;0.60;;;19.00;99.90;;;;;;5054511;28;20625;-66
2021/09/06 08:57:10;;;;;;;0.70;0.57;;;18.90;1.00;;;;;;5053822;28;20181;-67
2021/09/06 08:59:39;;;;;;;2.10;1.20;;;19.20;99.90;;;;;;5052859;28;20592;-67
2021/09/06 09:02:05;;;;;;;2.60;1.10;;;19.30;1.00;;;;;;5053182;28;20192;-66
2021/09/06 09:04:30;;;;;;;0.60;0.47;;;19.60;99.90;;;;;;5033541;28;20424;-65
2021/09/06 09:07:00;;;;;;;0.40;0.20;;;19.40;1.00;;;;;;5034391;28;20186;-66
2021/09/06 09:09:32;;;;;;;0.50;0.30;;;19.20;1.00;;;;;;5034188;28;20213;-65
2021/09/06 09:12:16;;;;;;;0.40;0.20;;;19.20;1.00;;;;;;5034991;28;20432;-65
2021/09/06 09:14:48;;;;;;;0.50;0.20;;;19.10;99.90;;;;;;5035036;28;20432;-65
2021/09/06 09:17:14;;;;;;;0.87;0.40;;;19.20;1.00;;;;;;5035275;28;20480;-65
2021/09/06 09:19:40;;;;;;;0.50;0.30;;;19.50;99.90;;;;;;5032367;28;20559;-66
2021/09/06 09:22:08;;;;;;;1.13;1.03;;;19.60;1.00;;;;;;5032561;28;20507;-66
2021/09/06 09:24:37;;;;;;;6.23;0.87;;;19.50;99.90;;;;;;5034118;28;20503;-66
2021/09/06 09:27:05;;;;;;;0.40;0.30;;;19.70;18.70;;;;;;5036130;28;20424;-67
2021/09/06 09:29:31;;;;;;;0.50;0.20;;;19.80;99.90;;;;;;5040154;28;20428;-65
2021/09/06 09:32:02;;;;;;;0.40;0.20;;;19.60;99.90;;;;;;5040723;28;20494;-65
2021/09/06 09:34:30;;;;;;;1.33;1.33;;;19.70;1.00;;;;;;5040077;28;20884;-65
2021/09/06 09:36:55;;;;;;;0.40;0.20;;;19.80;31.50;;;;;;5040386;28;20423;-65
2021/09/06 09:39:22;;;;;;;0.80;0.67;;;19.90;1.00;;;;;;5039232;28;20467;-66
2021/09/06 09:42:08;;;;;;;0.60;0.40;;;20.10;99.90;;;;;;5038444;28;20778;-66
2021/09/06 09:45:01;;;;;;;1.50;1.40;;;20.00;75.60;;;;;;5040538;28;20420;-65
2021/09/06 09:47:26;;;;;;;0.50;0.30;;;19.80;1.00;;;;;;5039917;28;20896;-64
2021/09/06 09:49:54;;;;;;;1.60;0.97;;;20.00;99.90;;;;;;5040396;28;20444;-65
2021/09/06 09:52:22;;;;;;;0.63;0.53;;;20.00;99.90;;;;;;5040037;28;20256;-64
2021/09/06 09:54:53;;;;;;;1.50;1.40;;;19.80;99.90;;;;;;5039333;28;20428;-65
2021/09/06 09:57:25;;;;;;;0.40;0.20;;;20.20;99.90;;;;;;5040325;28;20908;-64
2021/09/06 09:59:52;;;;;;;3.27;2.07;;;20.30;1.00;;;;;;5040391;28;20483;-64
2021/09/06 10:02:28;;;;;;;0.40;0.20;;;20.50;99.90;;;;;;5038393;28;20459;-65
2021/09/06 10:05:00;;;;;;;1.07;0.97;;;20.50;99.90;;;;;;5037008;28;20424;-65
2021/09/06 10:07:30;;;;;;;0.40;0.13;;;20.60;99.90;;;;;;5037254;28;20443;-65
2021/09/06 10:09:55;;;;;;;0.40;0.20;;;20.90;1.00;;;;;;5036715;28;20897;-65
2021/09/06 10:12:30;;;;;;;1.80;0.97;;;21.40;99.90;;;;;;5036919;28;20436;-66
2021/09/06 10:15:00;;;;;;;1.53;1.03;;;21.20;99.90;;;;;;5036886;28;20485;-66
2021/09/06 10:17:34;;;;;;;2.00;1.90;;;20.80;84.90;;;;;;5046730;28;20973;-66
2021/09/06 10:20:06;;;;;;;0.50;0.27;;;20.80;99.90;;;;;;5053852;28;20434;-66
2021/09/06 10:22:32;;;;;;;0.40;0.17;;;20.70;99.90;;;;;;5054741;28;20435;-65
2021/09/06 10:25:03;;;;;;;0.40;0.20;;;20.90;99.90;;;;;;5055573;28;20742;-65
2021/09/06 10:27:30;;;;;;;1.97;1.77;;;21.10;99.90;;;;;;5056386;28;20176;-65
2021/09/06 10:30:10;;;;;;;0.50;0.30;;;21.20;99.90;;;;;;5060544;28;20431;-65
2021/09/06 10:32:41;;;;;;;0.60;0.60;;;21.10;99.90;;;;;;5059816;28;20738;-66
2021/09/06 10:35:09;;;;;;;0.40;0.10;;;21.00;99.90;;;;;;5057646;28;20442;-66
2021/09/06 10:37:36;;;;;;;0.40;0.20;;;21.60;97.80;;;;;;5056882;28;20731;-66
2021/09/06 10:40:10;;;;;;;0.43;0.20;;;21.80;1.00;;;;;;5050758;28;20464;-66
2021/09/06 10:42:38;;;;;;;1.67;1.07;;;21.90;1.00;;;;;;5058179;28;20441;-67
2021/09/06 10:45:06;;;;;;;0.40;0.17;;;21.30;1.00;;;;;;5075030;28;20884;-66
2021/09/06 10:47:41;;;;;;;0.40;0.20;;;21.50;23.50;;;;;;5063636;28;20436;-66
2021/09/06 10:50:16;;;;;;;2.60;2.10;;;21.50;1.00;;;;;;5047097;28;20462;-67
2021/09/06 10:52:43;;;;;;;0.60;0.53;;;21.20;1.00;;;;;;5067019;28;20864;-66
2021/09/06 10:55:09;;;;;;;0.40;0.20;;;21.30;1.00;;;;;;5056844;28;20513;-66
2021/09/06 10:57:37;;;;;;;1.80;1.70;;;21.20;1.00;;;;;;5055692;28;20497;-67
2021/09/06 11:00:04;;;;;;;0.40;0.20;;;21.40;1.00;;;;;;5056384;28;20787;-67
2021/09/06 11:02:30;;;;;;;0.60;0.53;;;21.90;99.90;;;;;;5055551;28;20423;-69
2021/09/06 11:04:56;;;;;;;0.40;0.20;;;21.80;1.00;;;;;;5055812;28;20522;-68
2021/09/06 11:07:22;;;;;;;0.40;0.20;;;21.80;1.00;;;;;;5054293;28;20514;-67
2021/09/06 11:09:47;;;;;;;1.13;1.03;;;22.00;1.00;;;;;;5063142;28;20238;-67
2021/09/06 11:12:13;;;;;;;0.40;0.20;;;21.80;1.00;;;;;;5055263;28;20195;-67
2021/09/06 11:14:44;;;;;;;1.30;1.17;;;21.90;1.00;;;;;;5055426;28;20242;-67
2021/09/06 11:17:23;;;;;;;2.00;1.63;;;21.80;1.00;;;;;;5055244;28;20220;-67
2021/09/06 11:19:51;;;;;;;0.50;0.20;;;21.70;13.00;;;;;;5054097;28;20547;-64
2021/09/06 11:22:21;;;;;;;0.40;0.20;;;21.70;99.90;;;;;;5055255;28;20427;-65
2021/09/06 11:24:47;;;;;;;0.40;0.20;;;21.90;99.90;;;;;;5055048;28;20790;-66
2021/09/06 11:27:30;;;;;;;0.40;0.20;;;21.90;1.00;;;;;;5054964;28;20445;-67
2021/09/06 11:29:57;;;;;;;0.40;0.20;;;21.90;1.00;;;;;;5043746;28;20199;-69
2021/09/06 11:32:23;;;;;;;0.90;0.80;;;22.00;1.00;;;;;;5050623;28;20916;-66
2021/09/06 11:35:00;;;;;;;0.50;0.50;;;21.70;1.00;;;;;;5045410;28;20757;-66
2021/09/06 11:37:26;;;;;;;0.40;0.20;;;22.00;1.00;;;;;;5047511;28;20438;-65
2021/09/06 11:39:53;;;;;;;0.60;0.57;;;22.00;1.00;;;;;;5052486;28;20475;-65
2021/09/06 11:42:19;;;;;;;1.57;1.13;;;21.70;1.00;;;;;;5049712;28;20259;-67
2021/09/06 11:44:46;;;;;;;2.00;1.37;;;21.50;1.00;;;;;;5054818;28;20509;-65
2021/09/06 11:47:12;;;;;;;2.20;1.77;;;21.60;1.00;;;;;;5045063;28;20178;-66
2021/09/06 11:49:38;;;;;;;0.87;0.40;;;21.40;1.00;;;;;;5040480;28;20435;-66
2021/09/06 11:52:11;;;;;;;1.97;1.77;;;21.30;1.00;;;;;;5043788;28;20431;-65
2021/09/06 11:54:44;;;;;;;0.77;0.77;;;21.60;1.00;;;;;;5040275;28;20196;-66
2021/09/06 11:57:11;;;;;;;6.03;3.77;;;22.00;99.90;;;;;;5044999;28;20442;-66
2021/09/06 11:59:38;;;;;;;0.50;0.20;;;21.70;99.90;;;;;;5043246;28;20949;-66
2021/09/06 12:02:11;;;;;;;2.50;1.03;;;21.80;99.90;;;;;;5040718;28;20501;-65
2021/09/06 12:04:38;;;;;;;1.20;1.10;;;21.80;1.00;;;;;;5034883;28;20428;-66
2021/09/06 12:07:17;;;;;;;0.50;0.33;;;21.80;99.90;;;;;;5038550;28;20446;-65
2021/09/06 12:09:44;;;;;;;0.50;0.30;;;21.50;1.00;;;;;;5042322;28;20430;-65
2021/09/06 12:12:24;;;;;;;0.50;0.30;;;21.30;1.00;;;;;;5053838;28;20427;-66
2021/09/06 12:14:51;;;;;;;0.80;0.80;;;21.20;1.00;;;;;;5053665;28;20419;-69
2021/09/06 12:17:18;;;;;;;0.40;0.10;;;21.60;1.00;;;;;;5053926;28;20435;-68
2021/09/06 12:19:46;;;;;;;0.50;0.20;;;21.70;1.00;;;;;;5052246;28;20842;-68
2021/09/06 12:22:16;;;;;;;0.60;0.60;;;22.10;1.00;;;;;;5052384;28;20419;-68
2021/09/06 12:24:45;;;;;;;1.90;1.13;;;22.50;99.90;;;;;;5053814;28;20755;-67
2021/09/06 12:27:13;;;;;;;0.40;0.20;;;22.60;99.90;;;;;;5052498;28;20423;-67
2021/09/06 12:29:40;;;;;;;0.50;0.20;;;21.70;99.90;;;;;;5052490;28;20442;-68
2021/09/06 12:32:07;;;;;;;5.80;3.03;;;21.70;99.90;;;;;;5050972;28;20455;-67
2021/09/06 12:34:33;;;;;;;0.50;0.20;;;21.10;1.00;;;;;;5056938;28;20788;-67
2021/09/06 12:37:00;;;;;;;2.53;2.33;;;21.10;1.00;;;;;;5061343;28;20444;-69
2021/09/06 12:39:32;;;;;;;0.40;0.20;;;21.10;1.00;;;;;;5056232;28;20935;-69
2021/09/06 12:42:00;;;;;;;1.83;1.70;;;21.20;1.00;;;;;;5053300;28;20816;-69
2021/09/06 12:44:25;;;;;;;0.57;0.47;;;21.40;1.00;;;;;;5053529;28;20419;-69
2021/09/06 12:46:51;;;;;;;0.50;0.20;;;20.90;1.00;;;;;;5053265;28;20419;-69
2021/09/06 12:49:17;;;;;;;1.20;1.03;;;20.90;99.90;;;;;;5052733;28;20919;-69